sensor_id;sensor_type;location;lat;lon;timestamp;temperature;humidity
54832;DHT22;40730;53.068;6.572;2023-02-11T00:01:31;6.30;99.90
54832;DHT22;40730;53.068;6.572;2023-02-11T00:03:58;6.30;99.90
54832;DHT22;40730;53.068;6.572;2023-02-11T00:06:25;6.30;99.90
54832;DHT22;40730;53.068;6.572;2023-02-11T00:08:51;6.30;99.90
54832;DHT22;40730;53.068;6.572;2023-02-11T00:11:18;6.40;99.90
54832;DHT22;40730;53.068;6.572;2023-02-11T00:13:44;6.50;99.90
54832;DHT22;40730;53.068;6.572;2023-02-11T00:16:13;6.50;99.90
54832;DHT22;40730;53.068;6.572;2023-02-11T00:18:38;6.50;99.90
54832;DHT22;40730;53.068;6.572;2023-02-11T00:21:11;6.50;99.90
54832;DHT22;40730;53.068;6.572;2023-02-11T00:23:37;6.50;99.90
54832;DHT22;40730;53.068;6.572;2023-02-11T00:26:04;6.40;99.90
54832;DHT22;40730;53.068;6.572;2023-02-11T00:28:35;6.40;99.90
54832;DHT22;40730;53.068;6.572;2023-02-11T00:31:01;6.40;99.90
54832;DHT22;40730;53.068;6.572;2023-02-11T00:33:27;6.50;99.90
54832;DHT22;40730;53.068;6.572;2023-02-11T00:35:52;6.50;99.90
54832;DHT22;40730;53.068;6.572;2023-02-11T00:38:18;6.50;99.90
54832;DHT22;40730;53.068;6.572;2023-02-11T00:40:44;6.50;99.90
54832;DHT22;40730;53.068;6.572;2023-02-11T00:43:10;6.50;99.90
54832;DHT22;40730;53.068;6.572;2023-02-11T00:45:35;6.40;99.90
54832;DHT22;40730;53.068;6.572;2023-02-11T00:48:01;6.50;99.90
54832;DHT22;40730;53.068;6.572;2023-02-11T00:50:26;6.40;99.90
54832;DHT22;40730;53.068;6.572;2023-02-11T00:52:52;6.40;99.90
54832;DHT22;40730;53.068;6.572;2023-02-11T00:55:18;6.40;99.90
54832;DHT22;40730;53.068;6.572;2023-02-11T00:57:43;6.30;99.90
54832;DHT22;40730;53.068;6.572;2023-02-11T01:00:12;6.30;99.90
54832;DHT22;40730;53.068;6.572;2023-02-11T01:02:38;6.30;99.90
54832;DHT22;40730;53.068;6.572;2023-02-11T01:05:03;6.20;99.90
54832;DHT22;40730;53.068;6.572;2023-02-11T01:07:29;6.30;99.90
54832;DHT22;40730;53.068;6.572;2023-02-11T01:09:55;6.20;99.90
54832;DHT22;40730;53.068;6.572;2023-02-11T01:12:21;6.20;99.90
54832;DHT22;40730;53.068;6.572;2023-02-11T01:14:47;6.30;99.90
54832;DHT22;40730;53.068;6.572;2023-02-11T01:17:12;6.30;99.90
54832;DHT22;40730;53.068;6.572;2023-02-11T01:19:38;6.30;99.90
54832;DHT22;40730;53.068;6.572;2023-02-11T01:22:04;6.20;99.90
54832;DHT22;40730;53.068;6.572;2023-02-11T01:24:29;6.20;99.90
54832;DHT22;40730;53.068;6.572;2023-02-11T01:26:55;6.20;99.90
54832;DHT22;40730;53.068;6.572;2023-02-11T01:29:21;6.20;99.90
54832;DHT22;40730;53.068;6.572;2023-02-11T01:31:47;6.20;99.90
54832;DHT22;40730;53.068;6.572;2023-02-11T01:34:13;6.10;99.90
54832;DHT22;40730;53.068;6.572;2023-02-11T01:36:39;6.10;99.90
54832;DHT22;40730;53.068;6.572;2023-02-11T01:39:05;6.10;99.90
54832;DHT22;40730;53.068;6.572;2023-02-11T01:41:33;6.00;99.90
54832;DHT22;40730;53.068;6.572;2023-02-11T01:44:26;6.00;99.90
54832;DHT22;40730;53.068;6.572;2023-02-11T01:46:52;6.00;99.90
54832;DHT22;40730;53.068;6.572;2023-02-11T01:49:27;5.90;99.90
54832;DHT22;40730;53.068;6.572;2023-02-11T01:52:01;5.90;99.90
54832;DHT22;40730;53.068;6.572;2023-02-11T01:54:32;5.90;99.90
54832;DHT22;40730;53.068;6.572;2023-02-11T01:57:18;5.90;99.90
54832;DHT22;40730;53.068;6.572;2023-02-11T01:59:58;5.90;99.90
54832;DHT22;40730;53.068;6.572;2023-02-11T02:02:49;5.90;99.90
54832;DHT22;40730;53.068;6.572;2023-02-11T02:08:41;5.90;99.90
54832;DHT22;40730;53.068;6.572;2023-02-11T02:11:08;5.90;99.90
54832;DHT22;40730;53.068;6.572;2023-02-11T02:13:35;5.90;99.90
54832;DHT22;40730;53.068;6.572;2023-02-11T02:16:06;5.90;99.90
54832;DHT22;40730;53.068;6.572;2023-02-11T02:32:29;6.10;99.90
54832;DHT22;40730;53.068;6.572;2023-02-11T02:38:00;6.20;99.90
54832;DHT22;40730;53.068;6.572;2023-02-11T02:40:34;6.20;99.90
54832;DHT22;40730;53.068;6.572;2023-02-11T02:43:02;6.20;99.90
54832;DHT22;40730;53.068;6.572;2023-02-11T02:45:28;6.20;99.90
54832;DHT22;40730;53.068;6.572;2023-02-11T02:47:53;6.30;99.90
54832;DHT22;40730;53.068;6.572;2023-02-11T02:50:23;6.30;99.90
54832;DHT22;40730;53.068;6.572;2023-02-11T02:56:00;6.40;99.90
54832;DHT22;40730;53.068;6.572;2023-02-11T03:10:12;6.40;99.90
54832;DHT22;40730;53.068;6.572;2023-02-11T03:12:41;6.40;99.90
54832;DHT22;40730;53.068;6.572;2023-02-11T03:15:08;6.50;99.90
54832;DHT22;40730;53.068;6.572;2023-02-11T03:17:35;6.50;99.90
54832;DHT22;40730;53.068;6.572;2023-02-11T03:20:04;6.50;99.90
54832;DHT22;40730;53.068;6.572;2023-02-11T03:22:44;6.50;99.90
54832;DHT22;40730;53.068;6.572;2023-02-11T03:25:11;6.50;99.90
54832;DHT22;40730;53.068;6.572;2023-02-11T03:27:56;6.50;99.90
54832;DHT22;40730;53.068;6.572;2023-02-11T03:30:31;6.60;99.90
54832;DHT22;40730;53.068;6.572;2023-02-11T03:33:04;6.50;99.90
54832;DHT22;40730;53.068;6.572;2023-02-11T03:35:32;6.50;99.90
54832;DHT22;40730;53.068;6.572;2023-02-11T03:38:07;6.60;99.90
54832;DHT22;40730;53.068;6.572;2023-02-11T03:40:35;6.60;99.90
54832;DHT22;40730;53.068;6.572;2023-02-11T03:43:28;6.60;99.90
54832;DHT22;40730;53.068;6.572;2023-02-11T03:45:52;6.60;99.90
54832;DHT22;40730;53.068;6.572;2023-02-11T03:48:24;6.60;99.90
54832;DHT22;40730;53.068;6.572;2023-02-11T03:50:51;6.60;99.90
54832;DHT22;40730;53.068;6.572;2023-02-11T03:53:19;6.60;99.90
54832;DHT22;40730;53.068;6.572;2023-02-11T03:55:46;6.60;99.90
54832;DHT22;40730;53.068;6.572;2023-02-11T03:58:13;6.60;99.90
54832;DHT22;40730;53.068;6.572;2023-02-11T04:00:41;6.70;99.90
54832;DHT22;40730;53.068;6.572;2023-02-11T04:03:07;6.70;99.90
54832;DHT22;40730;53.068;6.572;2023-02-11T04:05:33;6.70;99.90
54832;DHT22;40730;53.068;6.572;2023-02-11T04:07:59;6.70;99.90
54832;DHT22;40730;53.068;6.572;2023-02-11T04:10:25;6.70;99.90
54832;DHT22;40730;53.068;6.572;2023-02-11T04:12:50;6.70;99.90
54832;DHT22;40730;53.068;6.572;2023-02-11T04:15:16;6.70;99.90
54832;DHT22;40730;53.068;6.572;2023-02-11T04:17:42;6.80;99.90
54832;DHT22;40730;53.068;6.572;2023-02-11T04:20:08;6.80;99.90
54832;DHT22;40730;53.068;6.572;2023-02-11T04:22:35;6.80;99.90
54832;DHT22;40730;53.068;6.572;2023-02-11T04:25:01;6.80;99.90
54832;DHT22;40730;53.068;6.572;2023-02-11T04:27:26;6.80;99.90
54832;DHT22;40730;53.068;6.572;2023-02-11T04:29:52;6.80;99.90
54832;DHT22;40730;53.068;6.572;2023-02-11T04:32:18;6.80;99.90
54832;DHT22;40730;53.068;6.572;2023-02-11T04:34:44;6.80;99.90
54832;DHT22;40730;53.068;6.572;2023-02-11T04:37:09;6.80;99.90
54832;DHT22;40730;53.068;6.572;2023-02-11T04:39:35;6.80;99.90
54832;DHT22;40730;53.068;6.572;2023-02-11T04:42:01;6.80;99.90
54832;DHT22;40730;53.068;6.572;2023-02-11T04:44:26;6.80;99.90
54832;DHT22;40730;53.068;6.572;2023-02-11T04:46:52;6.90;99.90
54832;DHT22;40730;53.068;6.572;2023-02-11T04:49:18;6.90;99.90
54832;DHT22;40730;53.068;6.572;2023-02-11T04:51:43;6.90;99.90
54832;DHT22;40730;53.068;6.572;2023-02-11T04:54:12;6.90;99.90
54832;DHT22;40730;53.068;6.572;2023-02-11T04:56:38;6.90;99.90
54832;DHT22;40730;53.068;6.572;2023-02-11T04:59:04;6.90;99.90
54832;DHT22;40730;53.068;6.572;2023-02-11T05:01:30;6.90;99.90
54832;DHT22;40730;53.068;6.572;2023-02-11T05:03:55;6.90;99.90
54832;DHT22;40730;53.068;6.572;2023-02-11T05:06:21;7.00;99.90
54832;DHT22;40730;53.068;6.572;2023-02-11T05:08:47;7.00;99.90
54832;DHT22;40730;53.068;6.572;2023-02-11T05:11:18;6.90;99.90
54832;DHT22;40730;53.068;6.572;2023-02-11T05:13:44;6.90;99.90
54832;DHT22;40730;53.068;6.572;2023-02-11T05:16:10;6.90;99.90
54832;DHT22;40730;53.068;6.572;2023-02-11T05:18:37;6.90;99.90
54832;DHT22;40730;53.068;6.572;2023-02-11T05:21:11;6.90;99.90
54832;DHT22;40730;53.068;6.572;2023-02-11T05:23:38;6.90;99.90
54832;DHT22;40730;53.068;6.572;2023-02-11T05:26:04;6.80;99.90
54832;DHT22;40730;53.068;6.572;2023-02-11T05:28:30;6.80;99.90
54832;DHT22;40730;53.068;6.572;2023-02-11T05:30:56;6.80;99.90
54832;DHT22;40730;53.068;6.572;2023-02-11T05:33:21;6.80;99.90
54832;DHT22;40730;53.068;6.572;2023-02-11T05:35:47;6.80;99.90
54832;DHT22;40730;53.068;6.572;2023-02-11T05:38:13;6.80;99.90
54832;DHT22;40730;53.068;6.572;2023-02-11T05:40:39;6.70;99.90
54832;DHT22;40730;53.068;6.572;2023-02-11T05:43:05;6.70;99.90
54832;DHT22;40730;53.068;6.572;2023-02-11T05:45:30;6.70;99.90
54832;DHT22;40730;53.068;6.572;2023-02-11T05:47:56;6.70;99.90
54832;DHT22;40730;53.068;6.572;2023-02-11T05:50:22;6.60;99.90
54832;DHT22;40730;53.068;6.572;2023-02-11T05:52:48;6.70;99.90
54832;DHT22;40730;53.068;6.572;2023-02-11T05:55:13;6.70;99.90
54832;DHT22;40730;53.068;6.572;2023-02-11T05:57:39;6.60;99.90
54832;DHT22;40730;53.068;6.572;2023-02-11T06:00:06;6.70;99.90
54832;DHT22;40730;53.068;6.572;2023-02-11T06:02:32;6.70;99.90
54832;DHT22;40730;53.068;6.572;2023-02-11T06:04:58;6.70;99.90
54832;DHT22;40730;53.068;6.572;2023-02-11T06:07:23;6.70;99.90
54832;DHT22;40730;53.068;6.572;2023-02-11T06:09:49;6.70;99.90
54832;DHT22;40730;53.068;6.572;2023-02-11T06:12:15;6.60;99.90
54832;DHT22;40730;53.068;6.572;2023-02-11T06:14:40;6.70;99.90
54832;DHT22;40730;53.068;6.572;2023-02-11T06:17:06;6.70;99.90
54832;DHT22;40730;53.068;6.572;2023-02-11T06:19:32;6.70;99.90
54832;DHT22;40730;53.068;6.572;2023-02-11T06:21:58;6.70;99.90
54832;DHT22;40730;53.068;6.572;2023-02-11T06:24:24;6.70;99.90
54832;DHT22;40730;53.068;6.572;2023-02-11T06:26:50;6.70;99.90
54832;DHT22;40730;53.068;6.572;2023-02-11T06:29:15;6.70;99.90
54832;DHT22;40730;53.068;6.572;2023-02-11T06:31:41;6.70;99.90
54832;DHT22;40730;53.068;6.572;2023-02-11T06:34:07;6.70;99.90
54832;DHT22;40730;53.068;6.572;2023-02-11T06:36:33;6.70;99.90
54832;DHT22;40730;53.068;6.572;2023-02-11T06:38:59;6.70;99.90
54832;DHT22;40730;53.068;6.572;2023-02-11T06:41:24;6.60;99.90
54832;DHT22;40730;53.068;6.572;2023-02-11T06:43:52;6.60;99.90
54832;DHT22;40730;53.068;6.572;2023-02-11T06:46:17;6.60;99.90
54832;DHT22;40730;53.068;6.572;2023-02-11T06:48:43;6.60;99.90
54832;DHT22;40730;53.068;6.572;2023-02-11T06:51:10;6.60;99.90
54832;DHT22;40730;53.068;6.572;2023-02-11T06:53:38;6.60;99.90
54832;DHT22;40730;53.068;6.572;2023-02-11T06:56:06;6.50;99.90
54832;DHT22;40730;53.068;6.572;2023-02-11T06:58:32;6.50;99.90
54832;DHT22;40730;53.068;6.572;2023-02-11T07:00:58;6.50;99.90
54832;DHT22;40730;53.068;6.572;2023-02-11T07:03:24;6.50;99.90
54832;DHT22;40730;53.068;6.572;2023-02-11T07:05:50;6.50;99.90
54832;DHT22;40730;53.068;6.572;2023-02-11T07:08:16;6.40;99.90
54832;DHT22;40730;53.068;6.572;2023-02-11T07:10:41;6.40;99.90
54832;DHT22;40730;53.068;6.572;2023-02-11T07:13:07;6.40;99.90
54832;DHT22;40730;53.068;6.572;2023-02-11T07:15:33;6.40;99.90
54832;DHT22;40730;53.068;6.572;2023-02-11T07:17:58;6.40;99.90
54832;DHT22;40730;53.068;6.572;2023-02-11T07:20:24;6.40;99.90
54832;DHT22;40730;53.068;6.572;2023-02-11T07:22:50;6.50;99.90
54832;DHT22;40730;53.068;6.572;2023-02-11T07:25:16;6.40;99.90
54832;DHT22;40730;53.068;6.572;2023-02-11T07:27:41;6.40;99.90
54832;DHT22;40730;53.068;6.572;2023-02-11T07:30:08;6.40;99.90
54832;DHT22;40730;53.068;6.572;2023-02-11T07:32:34;6.50;99.90
54832;DHT22;40730;53.068;6.572;2023-02-11T07:34:59;6.50;99.90
54832;DHT22;40730;53.068;6.572;2023-02-11T07:37:25;6.50;99.90
54832;DHT22;40730;53.068;6.572;2023-02-11T07:39:50;6.50;99.90
54832;DHT22;40730;53.068;6.572;2023-02-11T07:42:16;6.60;99.90
54832;DHT22;40730;53.068;6.572;2023-02-11T07:44:41;6.60;99.90
54832;DHT22;40730;53.068;6.572;2023-02-11T07:47:07;6.60;99.90
54832;DHT22;40730;53.068;6.572;2023-02-11T07:49:32;6.70;99.90
54832;DHT22;40730;53.068;6.572;2023-02-11T07:51:58;6.70;99.90
54832;DHT22;40730;53.068;6.572;2023-02-11T07:54:24;6.70;99.90
54832;DHT22;40730;53.068;6.572;2023-02-11T07:56:49;6.80;99.90
54832;DHT22;40730;53.068;6.572;2023-02-11T07:59:15;6.90;99.90
54832;DHT22;40730;53.068;6.572;2023-02-11T08:01:41;6.80;99.90
54832;DHT22;40730;53.068;6.572;2023-02-11T08:04:07;6.80;99.90
54832;DHT22;40730;53.068;6.572;2023-02-11T08:06:34;6.90;99.90
54832;DHT22;40730;53.068;6.572;2023-02-11T08:09:05;6.90;99.90
54832;DHT22;40730;53.068;6.572;2023-02-11T08:11:32;6.90;99.90
54832;DHT22;40730;53.068;6.572;2023-02-11T08:13:57;6.90;99.90
54832;DHT22;40730;53.068;6.572;2023-02-11T08:16:34;6.90;99.90
54832;DHT22;40730;53.068;6.572;2023-02-11T08:19:03;6.90;99.90
54832;DHT22;40730;53.068;6.572;2023-02-11T08:21:28;7.00;99.90
54832;DHT22;40730;53.068;6.572;2023-02-11T08:23:54;7.00;99.90
54832;DHT22;40730;53.068;6.572;2023-02-11T08:26:24;7.00;99.90
54832;DHT22;40730;53.068;6.572;2023-02-11T08:28:51;7.10;99.90
54832;DHT22;40730;53.068;6.572;2023-02-11T08:31:22;7.10;99.90
54832;DHT22;40730;53.068;6.572;2023-02-11T08:33:48;7.10;99.90
54832;DHT22;40730;53.068;6.572;2023-02-11T08:36:15;7.10;99.90
54832;DHT22;40730;53.068;6.572;2023-02-11T08:38:41;7.10;99.90
54832;DHT22;40730;53.068;6.572;2023-02-11T08:41:07;7.10;99.90
54832;DHT22;40730;53.068;6.572;2023-02-11T08:43:33;7.20;99.90
54832;DHT22;40730;53.068;6.572;2023-02-11T08:45:59;7.20;99.90
54832;DHT22;40730;53.068;6.572;2023-02-11T08:48:25;7.20;99.90
54832;DHT22;40730;53.068;6.572;2023-02-11T08:50:56;7.30;99.90
54832;DHT22;40730;53.068;6.572;2023-02-11T08:53:21;7.30;99.90
54832;DHT22;40730;53.068;6.572;2023-02-11T08:55:48;7.40;99.90
54832;DHT22;40730;53.068;6.572;2023-02-11T08:58:14;7.40;99.90
54832;DHT22;40730;53.068;6.572;2023-02-11T09:00:39;7.40;99.90
54832;DHT22;40730;53.068;6.572;2023-02-11T09:03:05;7.50;99.90
54832;DHT22;40730;53.068;6.572;2023-02-11T09:05:31;7.50;99.90
54832;DHT22;40730;53.068;6.572;2023-02-11T09:07:56;7.50;99.90
54832;DHT22;40730;53.068;6.572;2023-02-11T09:10:22;7.60;99.90
54832;DHT22;40730;53.068;6.572;2023-02-11T09:12:47;7.60;99.90
54832;DHT22;40730;53.068;6.572;2023-02-11T09:15:13;7.70;99.90
54832;DHT22;40730;53.068;6.572;2023-02-11T09:17:38;7.80;99.90
54832;DHT22;40730;53.068;6.572;2023-02-11T09:20:04;7.80;99.90
54832;DHT22;40730;53.068;6.572;2023-02-11T09:22:30;7.90;99.90
54832;DHT22;40730;53.068;6.572;2023-02-11T09:24:56;7.90;99.90
54832;DHT22;40730;53.068;6.572;2023-02-11T09:27:21;7.90;99.90
54832;DHT22;40730;53.068;6.572;2023-02-11T09:29:47;8.00;99.90
54832;DHT22;40730;53.068;6.572;2023-02-11T09:32:12;8.00;99.90
54832;DHT22;40730;53.068;6.572;2023-02-11T09:34:38;8.00;99.90
54832;DHT22;40730;53.068;6.572;2023-02-11T09:37:03;8.00;99.90
54832;DHT22;40730;53.068;6.572;2023-02-11T09:39:29;8.10;99.90
54832;DHT22;40730;53.068;6.572;2023-02-11T09:42:01;8.10;99.90
54832;DHT22;40730;53.068;6.572;2023-02-11T09:44:33;8.10;99.90
54832;DHT22;40730;53.068;6.572;2023-02-11T09:49:51;8.20;99.90
54832;DHT22;40730;53.068;6.572;2023-02-11T09:52:42;8.20;99.90
54832;DHT22;40730;53.068;6.572;2023-02-11T09:55:42;8.30;99.90
54832;DHT22;40730;53.068;6.572;2023-02-11T10:18:28;8.80;99.90
54832;DHT22;40730;53.068;6.572;2023-02-11T10:23:43;8.80;99.90
54832;DHT22;40730;53.068;6.572;2023-02-11T10:26:12;8.80;99.90
54832;DHT22;40730;53.068;6.572;2023-02-11T10:28:41;8.80;99.90
54832;DHT22;40730;53.068;6.572;2023-02-11T10:31:21;8.80;99.90
54832;DHT22;40730;53.068;6.572;2023-02-11T10:34:09;8.90;99.90
54832;DHT22;40730;53.068;6.572;2023-02-11T10:36:40;8.90;99.90
54832;DHT22;40730;53.068;6.572;2023-02-11T10:39:24;8.90;99.90
54832;DHT22;40730;53.068;6.572;2023-02-11T10:41:56;8.90;99.90
54832;DHT22;40730;53.068;6.572;2023-02-11T10:44:39;9.00;99.90
54832;DHT22;40730;53.068;6.572;2023-02-11T10:47:16;9.00;99.90
54832;DHT22;40730;53.068;6.572;2023-02-11T10:49:44;9.20;99.90
54832;DHT22;40730;53.068;6.572;2023-02-11T10:52:14;9.10;99.90
54832;DHT22;40730;53.068;6.572;2023-02-11T10:54:40;9.20;99.90
54832;DHT22;40730;53.068;6.572;2023-02-11T10:57:06;9.30;99.90
54832;DHT22;40730;53.068;6.572;2023-02-11T10:59:40;9.40;99.90
54832;DHT22;40730;53.068;6.572;2023-02-11T11:02:18;9.50;99.90
54832;DHT22;40730;53.068;6.572;2023-02-11T11:04:46;9.50;99.90
54832;DHT22;40730;53.068;6.572;2023-02-11T11:07:21;9.50;99.90
54832;DHT22;40730;53.068;6.572;2023-02-11T11:10:03;9.50;99.90
54832;DHT22;40730;53.068;6.572;2023-02-11T11:17:36;9.60;99.90
54832;DHT22;40730;53.068;6.572;2023-02-11T11:20:24;9.60;99.90
54832;DHT22;40730;53.068;6.572;2023-02-11T11:23:38;9.70;99.90
54832;DHT22;40730;53.068;6.572;2023-02-11T11:25:41;9.70;99.90
54832;DHT22;40730;53.068;6.572;2023-02-11T11:28:21;9.70;99.90
54832;DHT22;40730;53.068;6.572;2023-02-11T11:30:47;9.70;99.90
54832;DHT22;40730;53.068;6.572;2023-02-11T11:33:30;9.70;99.90
54832;DHT22;40730;53.068;6.572;2023-02-11T11:36:10;9.70;99.90
54832;DHT22;40730;53.068;6.572;2023-02-11T11:38:48;9.70;99.90
54832;DHT22;40730;53.068;6.572;2023-02-11T11:41:28;9.70;99.90
54832;DHT22;40730;53.068;6.572;2023-02-11T11:44:20;9.70;99.90
54832;DHT22;40730;53.068;6.572;2023-02-11T11:46:50;9.70;99.90
54832;DHT22;40730;53.068;6.572;2023-02-11T11:49:34;9.70;99.90
54832;DHT22;40730;53.068;6.572;2023-02-11T11:54:55;9.80;99.90
54832;DHT22;40730;53.068;6.572;2023-02-11T11:57:26;9.80;99.90
54832;DHT22;40730;53.068;6.572;2023-02-11T11:59:54;9.80;99.90
54832;DHT22;40730;53.068;6.572;2023-02-11T12:08:23;9.80;99.90
54832;DHT22;40730;53.068;6.572;2023-02-11T12:21:37;9.90;99.90
54832;DHT22;40730;53.068;6.572;2023-02-11T12:59:14;10.10;99.90
54832;DHT22;40730;53.068;6.572;2023-02-11T13:01:42;10.10;99.90
54832;DHT22;40730;53.068;6.572;2023-02-11T13:04:20;10.10;99.90
54832;DHT22;40730;53.068;6.572;2023-02-11T13:06:56;10.20;99.90
54832;DHT22;40730;53.068;6.572;2023-02-11T13:09:26;10.20;99.90
54832;DHT22;40730;53.068;6.572;2023-02-11T13:11:56;10.20;99.90
54832;DHT22;40730;53.068;6.572;2023-02-11T13:14:30;10.10;99.90
54832;DHT22;40730;53.068;6.572;2023-02-11T13:17:00;10.10;99.90
54832;DHT22;40730;53.068;6.572;2023-02-11T13:19:42;10.30;99.90
54832;DHT22;40730;53.068;6.572;2023-02-11T13:22:28;10.10;99.90
54832;DHT22;40730;53.068;6.572;2023-02-11T13:35:30;10.20;99.90
54832;DHT22;40730;53.068;6.572;2023-02-11T13:37:57;10.10;99.90
54832;DHT22;40730;53.068;6.572;2023-02-11T13:40:26;10.10;99.90
54832;DHT22;40730;53.068;6.572;2023-02-11T13:42:58;10.10;99.90
54832;DHT22;40730;53.068;6.572;2023-02-11T13:45:42;10.10;99.90
54832;DHT22;40730;53.068;6.572;2023-02-11T13:48:23;10.00;99.90
54832;DHT22;40730;53.068;6.572;2023-02-11T13:50:55;10.00;99.90
54832;DHT22;40730;53.068;6.572;2023-02-11T13:53:22;9.90;99.90
54832;DHT22;40730;53.068;6.572;2023-02-11T13:55:51;10.10;99.90
54832;DHT22;40730;53.068;6.572;2023-02-11T14:00:53;9.90;99.90
54832;DHT22;40730;53.068;6.572;2023-02-11T14:14:25;9.90;99.90
54832;DHT22;40730;53.068;6.572;2023-02-11T14:19:40;9.80;99.90
54832;DHT22;40730;53.068;6.572;2023-02-11T14:25:00;9.80;99.90
54832;DHT22;40730;53.068;6.572;2023-02-11T14:27:35;9.80;99.90
54832;DHT22;40730;53.068;6.572;2023-02-11T14:30:17;9.80;99.90
54832;DHT22;40730;53.068;6.572;2023-02-11T14:33:14;9.80;99.90
54832;DHT22;40730;53.068;6.572;2023-02-11T14:38:47;9.70;99.90
54832;DHT22;40730;53.068;6.572;2023-02-11T14:41:25;9.70;99.90
54832;DHT22;40730;53.068;6.572;2023-02-11T14:43:58;9.70;99.90
54832;DHT22;40730;53.068;6.572;2023-02-11T14:46:26;9.70;99.90
54832;DHT22;40730;53.068;6.572;2023-02-11T14:48:57;9.60;99.90
54832;DHT22;40730;53.068;6.572;2023-02-11T14:51:38;9.60;99.90
54832;DHT22;40730;53.068;6.572;2023-02-11T14:56:37;9.60;99.90
54832;DHT22;40730;53.068;6.572;2023-02-11T14:59:19;9.60;99.90
54832;DHT22;40730;53.068;6.572;2023-02-11T15:01:49;9.60;99.90
54832;DHT22;40730;53.068;6.572;2023-02-11T15:04:41;9.50;99.90
54832;DHT22;40730;53.068;6.572;2023-02-11T15:07:12;9.50;99.90
54832;DHT22;40730;53.068;6.572;2023-02-11T15:12:18;9.50;99.90
54832;DHT22;40730;53.068;6.572;2023-02-11T15:14:50;9.40;99.90
54832;DHT22;40730;53.068;6.572;2023-02-11T15:17:21;9.40;99.90
54832;DHT22;40730;53.068;6.572;2023-02-11T15:19:50;9.40;99.90
54832;DHT22;40730;53.068;6.572;2023-02-11T15:22:28;9.40;99.90
54832;DHT22;40730;53.068;6.572;2023-02-11T15:25:15;9.40;99.90
54832;DHT22;40730;53.068;6.572;2023-02-11T15:27:47;9.30;99.90
54832;DHT22;40730;53.068;6.572;2023-02-11T15:32:48;9.40;99.90
54832;DHT22;40730;53.068;6.572;2023-02-11T15:35:22;9.40;99.90
54832;DHT22;40730;53.068;6.572;2023-02-11T15:37:48;9.40;99.90
54832;DHT22;40730;53.068;6.572;2023-02-11T15:40:20;9.40;99.90
54832;DHT22;40730;53.068;6.572;2023-02-11T15:42:59;9.40;99.90
54832;DHT22;40730;53.068;6.572;2023-02-11T15:45:32;9.40;99.90
54832;DHT22;40730;53.068;6.572;2023-02-11T15:48:12;9.40;99.90
54832;DHT22;40730;53.068;6.572;2023-02-11T15:50:40;9.40;99.90
54832;DHT22;40730;53.068;6.572;2023-02-11T15:53:28;9.40;99.90
54832;DHT22;40730;53.068;6.572;2023-02-11T15:56:16;9.60;99.90
54832;DHT22;40730;53.068;6.572;2023-02-11T15:58:45;9.40;99.90
54832;DHT22;40730;53.068;6.572;2023-02-11T16:01:12;9.50;99.90
54832;DHT22;40730;53.068;6.572;2023-02-11T16:03:39;9.30;99.90
54832;DHT22;40730;53.068;6.572;2023-02-11T16:06:22;9.30;99.90
54832;DHT22;40730;53.068;6.572;2023-02-11T16:08:59;9.20;99.90
54832;DHT22;40730;53.068;6.572;2023-02-11T16:11:29;9.30;99.90
54832;DHT22;40730;53.068;6.572;2023-02-11T16:13:56;9.20;99.90
54832;DHT22;40730;53.068;6.572;2023-02-11T16:16:34;9.10;99.90
54832;DHT22;40730;53.068;6.572;2023-02-11T16:19:00;9.10;99.90
54832;DHT22;40730;53.068;6.572;2023-02-11T16:21:33;9.10;99.90
54832;DHT22;40730;53.068;6.572;2023-02-11T16:24:04;9.00;99.90
54832;DHT22;40730;53.068;6.572;2023-02-11T16:26:35;9.00;99.90
54832;DHT22;40730;53.068;6.572;2023-02-11T16:29:13;9.00;99.90
54832;DHT22;40730;53.068;6.572;2023-02-11T16:31:48;9.00;99.90
54832;DHT22;40730;53.068;6.572;2023-02-11T16:34:24;9.00;99.90
54832;DHT22;40730;53.068;6.572;2023-02-11T16:36:51;8.90;99.90
54832;DHT22;40730;53.068;6.572;2023-02-11T16:39:18;8.90;99.90
54832;DHT22;40730;53.068;6.572;2023-02-11T16:41:47;8.90;99.90
54832;DHT22;40730;53.068;6.572;2023-02-11T16:44:17;8.90;99.90
54832;DHT22;40730;53.068;6.572;2023-02-11T16:46:43;8.90;99.90
54832;DHT22;40730;53.068;6.572;2023-02-11T16:51:52;8.80;99.90
54832;DHT22;40730;53.068;6.572;2023-02-11T16:54:18;8.80;99.90
54832;DHT22;40730;53.068;6.572;2023-02-11T16:56:44;8.80;99.90
54832;DHT22;40730;53.068;6.572;2023-02-11T16:59:10;8.70;99.90
54832;DHT22;40730;53.068;6.572;2023-02-11T17:01:37;8.70;99.90
54832;DHT22;40730;53.068;6.572;2023-02-11T17:04:04;8.70;99.90
54832;DHT22;40730;53.068;6.572;2023-02-11T17:06:29;8.70;99.90
54832;DHT22;40730;53.068;6.572;2023-02-11T17:08:55;8.70;99.90
54832;DHT22;40730;53.068;6.572;2023-02-11T17:11:21;8.60;99.90
54832;DHT22;40730;53.068;6.572;2023-02-11T17:13:46;8.60;99.90
54832;DHT22;40730;53.068;6.572;2023-02-11T17:16:18;8.60;99.90
54832;DHT22;40730;53.068;6.572;2023-02-11T17:18:45;8.60;99.90
54832;DHT22;40730;53.068;6.572;2023-02-11T17:21:11;8.50;99.90
54832;DHT22;40730;53.068;6.572;2023-02-11T17:23:36;8.50;99.90
54832;DHT22;40730;53.068;6.572;2023-02-11T17:26:02;8.50;99.90
54832;DHT22;40730;53.068;6.572;2023-02-11T17:28:28;8.40;99.90
54832;DHT22;40730;53.068;6.572;2023-02-11T17:30:53;8.50;99.90
54832;DHT22;40730;53.068;6.572;2023-02-11T17:33:19;8.40;99.90
54832;DHT22;40730;53.068;6.572;2023-02-11T17:35:45;8.40;99.90
54832;DHT22;40730;53.068;6.572;2023-02-11T17:38:11;8.40;99.90
54832;DHT22;40730;53.068;6.572;2023-02-11T17:40:36;8.30;99.90
54832;DHT22;40730;53.068;6.572;2023-02-11T17:43:02;8.30;99.90
54832;DHT22;40730;53.068;6.572;2023-02-11T17:45:28;8.30;99.90
54832;DHT22;40730;53.068;6.572;2023-02-11T17:47:53;8.30;99.90
54832;DHT22;40730;53.068;6.572;2023-02-11T17:50:19;8.20;99.90
54832;DHT22;40730;53.068;6.572;2023-02-11T17:52:45;8.20;99.90
54832;DHT22;40730;53.068;6.572;2023-02-11T17:55:12;8.20;99.90
54832;DHT22;40730;53.068;6.572;2023-02-11T17:57:37;8.10;99.90
54832;DHT22;40730;53.068;6.572;2023-02-11T18:00:05;8.10;99.90
54832;DHT22;40730;53.068;6.572;2023-02-11T18:02:32;8.10;99.90
54832;DHT22;40730;53.068;6.572;2023-02-11T18:04:58;8.10;99.90
54832;DHT22;40730;53.068;6.572;2023-02-11T18:07:24;8.10;99.90
54832;DHT22;40730;53.068;6.572;2023-02-11T18:09:50;8.00;99.90
54832;DHT22;40730;53.068;6.572;2023-02-11T18:12:17;8.00;99.90
54832;DHT22;40730;53.068;6.572;2023-02-11T18:14:50;7.90;99.90
54832;DHT22;40730;53.068;6.572;2023-02-11T18:17:19;7.80;99.90
54832;DHT22;40730;53.068;6.572;2023-02-11T18:19:44;7.70;99.90
54832;DHT22;40730;53.068;6.572;2023-02-11T18:22:10;7.60;99.90
54832;DHT22;40730;53.068;6.572;2023-02-11T18:24:36;7.60;99.90
54832;DHT22;40730;53.068;6.572;2023-02-11T18:27:01;7.60;99.90
54832;DHT22;40730;53.068;6.572;2023-02-11T18:29:27;7.50;99.90
54832;DHT22;40730;53.068;6.572;2023-02-11T18:31:56;7.50;99.90
54832;DHT22;40730;53.068;6.572;2023-02-11T18:34:22;7.50;99.90
54832;DHT22;40730;53.068;6.572;2023-02-11T18:36:48;7.50;99.90
54832;DHT22;40730;53.068;6.572;2023-02-11T18:39:15;7.50;99.90
54832;DHT22;40730;53.068;6.572;2023-02-11T18:41:41;7.50;99.90